Time;durP1;ratioP1;P1;durP2;ratioP2;P2;SDS_P1;SDS_P2;PMS_P1;PMS_P2;Temp;Humidity;BMP_temperature;BMP_pressure;BME280_temperature;BME280_humidity;BME280_pressure;Samples;Min_cycle;Max_cycle;Signal;HPM_P1;HPM_P2
2023/10/30 00:00:29;;;;;;;4.90;1.37;;;;;;;16.19;63.02;98695.47;4497017;31;34083;-90
2023/10/30 00:02:57;;;;;;;7.47;1.70;;;;;;;16.27;62.47;98698.81;4498038;31;32825;-89
2023/10/30 00:05:25;;;;;;;6.28;1.58;;;;;;;16.03;63.21;98694.88;4498177;31;33844;-90
2023/10/30 00:07:53;;;;;;;3.37;1.17;;;;;;;16.26;63.20;98694.50;4498152;31;33739;-89
2023/10/30 00:10:21;;;;;;;7.22;1.48;;;;;;;16.10;62.37;98693.00;4488201;31;33961;-89
2023/10/30 00:12:49;;;;;;;6.05;1.70;;;;;;;16.07;62.84;98696.56;4482547;32;33635;-88
2023/10/30 00:15:16;;;;;;;5.90;1.50;;;;;;;16.35;62.00;98696.06;4494291;31;33633;-89
2023/10/30 00:17:44;;;;;;;7.28;1.73;;;;;;;16.05;63.79;98701.78;4498292;31;33764;-88
2023/10/30 00:20:11;;;;;;;4.95;1.70;;;;;;;16.36;61.38;98703.88;4497071;31;33822;-89
2023/10/30 00:22:39;;;;;;;6.18;1.30;;;;;;;16.22;61.73;98711.13;4497729;31;32608;-90
2023/10/30 00:25:07;;;;;;;8.05;1.40;;;;;;;16.26;62.32;98704.94;4496514;31;33554;-91
2023/10/30 00:27:34;;;;;;;8.60;1.75;;;;;;;16.12;62.80;98712.16;4470377;31;34475;-90
2023/10/30 00:30:03;;;;;;;5.82;1.37;;;;;;;16.29;62.08;98708.38;4496403;31;33126;-88
2023/10/30 00:32:33;;;;;;;7.65;1.70;;;;;;;16.19;62.21;98705.94;4490399;31;33336;-89
2023/10/30 00:35:01;;;;;;;7.22;1.30;;;;;;;16.26;62.77;98708.44;4494557;31;34189;-88
2023/10/30 00:37:28;;;;;;;9.82;1.42;;;;;;;15.96;62.47;98703.72;4496452;31;34135;-90
2023/10/30 00:39:56;;;;;;;6.32;1.55;;;;;;;16.13;63.01;98706.03;4478159;32;33956;-89
2023/10/30 00:42:27;;;;;;;7.30;1.42;;;;;;;16.13;63.89;98706.03;4487928;31;33194;-88
2023/10/30 00:44:55;;;;;;;7.62;1.40;;;;;;;15.98;63.25;98692.31;4491688;31;33868;-88
2023/10/30 00:47:23;;;;;;;3.25;1.20;;;;;;;16.10;62.52;98698.25;4495637;31;33377;-88
2023/10/30 00:49:50;;;;;;;5.55;1.20;;;;;;;16.20;62.12;98697.19;4498188;31;34640;-88
2023/10/30 00:52:18;;;;;;;6.35;1.17;;;;;;;16.34;61.88;98691.72;4486285;31;33183;-87
2023/10/30 00:54:46;;;;;;;5.55;1.85;;;;;;;16.37;61.88;98687.31;4489557;31;33458;-88
2023/10/30 00:57:13;;;;;;;5.68;1.40;;;;;;;16.20;61.37;98695.44;4497357;31;33631;-87
2023/10/30 00:59:41;;;;;;;6.25;1.30;;;;;;;16.43;60.88;98686.31;4488149;31;33789;-88
2023/10/30 01:02:09;;;;;;;4.60;1.27;;;;;;;16.27;60.54;98678.75;4492042;31;34129;-87
2023/10/30 01:04:37;;;;;;;7.45;1.55;;;;;;;16.21;61.08;98683.22;4496360;31;34611;-88
2023/10/30 01:07:04;;;;;;;4.75;1.20;;;;;;;16.15;61.56;98692.06;4496109;31;34888;-89
2023/10/30 01:09:32;;;;;;;5.70;1.58;;;;;;;16.26;60.67;98678.78;4495830;31;34279;-89
2023/10/30 01:12:00;;;;;;;7.15;1.40;;;;;;;16.12;61.03;98679.03;4479498;32;33346;-89
2023/10/30 01:14:28;;;;;;;5.55;1.10;;;;;;;16.28;61.19;98679.59;4490762;31;33545;-88
2023/10/30 01:16:56;;;;;;;7.03;1.30;;;;;;;16.35;60.27;98675.13;4498832;31;33727;-90
2023/10/30 01:19:23;;;;;;;3.67;1.20;;;;;;;16.37;59.88;98674.22;4499582;31;33623;-90
2023/10/30 01:21:51;;;;;;;4.32;1.23;;;;;;;16.43;60.71;98674.09;4499666;31;33003;-90
2023/10/30 01:24:19;;;;;;;10.35;1.62;;;;;;;16.05;61.57;98678.25;4497117;31;33901;-88
2023/10/30 01:26:47;;;;;;;7.93;1.48;;;;;;;16.39;60.15;98677.66;4499367;31;34133;-90
2023/10/30 01:29:15;;;;;;;6.82;1.33;;;;;;;16.15;61.91;98670.28;4496712;31;33811;-90
2023/10/30 01:31:43;;;;;;;4.80;1.12;;;;;;;16.35;61.59;98676.00;4496273;31;35057;-89
2023/10/30 01:34:10;;;;;;;4.47;1.10;;;;;;;16.14;61.43;98677.25;4499064;31;33948;-89
2023/10/30 01:36:38;;;;;;;5.87;1.10;;;;;;;16.41;60.82;98670.66;4499242;31;34035;-89
2023/10/30 01:39:05;;;;;;;3.45;1.08;;;;;;;16.52;59.96;98663.47;4498721;31;34075;-90
2023/10/30 01:41:33;;;;;;;6.40;1.52;;;;;;;16.61;60.13;98672.03;4498172;31;33952;-89
2023/10/30 01:44:00;;;;;;;5.55;1.40;;;;;;;16.26;60.74;98671.81;4499262;31;34631;-89
2023/10/30 01:46:29;;;;;;;6.47;1.50;;;;;;;16.35;59.93;98664.69;4496847;31;32475;-89
2023/10/30 01:48:57;;;;;;;3.92;1.27;;;;;;;16.49;59.59;98662.66;4498537;31;33904;-89
2023/10/30 01:51:25;;;;;;;7.15;1.10;;;;;;;16.39;60.00;98663.72;4499136;31;34052;-89
2023/10/30 01:53:53;;;;;;;6.55;1.80;;;;;;;16.39;59.80;98656.72;4498219;31;33912;-89
2023/10/30 01:56:20;;;;;;;5.53;1.00;;;;;;;16.14;60.84;98661.56;4497658;31;34022;-89
2023/10/30 01:58:48;;;;;;;7.90;1.90;;;;;;;16.24;60.20;98660.50;4498301;31;34666;-91
2023/10/30 02:01:16;;;;;;;6.75;1.30;;;;;;;16.25;60.04;98656.12;4498108;31;33084;-89
2023/10/30 02:03:43;;;;;;;7.03;1.52;;;;;;;16.30;60.13;98655.16;4498581;31;33787;-89
2023/10/30 02:06:11;;;;;;;6.72;1.27;;;;;;;16.41;60.41;98654.97;4498463;31;33535;-89
2023/10/30 02:08:39;;;;;;;4.65;1.30;;;;;;;16.49;59.94;98649.59;4498783;31;33572;-89
2023/10/30 02:11:07;;;;;;;4.68;1.30;;;;;;;16.25;60.42;98646.56;4497837;31;33837;-89
2023/10/30 02:13:34;;;;;;;5.70;1.58;;;;;;;16.45;59.99;98648.78;4497605;31;34083;-88
2023/10/30 02:16:02;;;;;;;5.55;1.77;;;;;;;16.37;60.26;98644.59;4494139;31;33508;-89
2023/10/30 02:18:30;;;;;;;3.33;1.10;;;;;;;16.25;61.36;98658.72;4496223;31;33769;-90
2023/10/30 02:20:58;;;;;;;6.30;1.17;;;;;;;16.47;59.99;98648.75;4499169;31;33473;-89
2023/10/30 02:23:25;;;;;;;5.80;1.33;;;;;;;16.39;60.51;98640.19;4498711;31;33600;-89
2023/10/30 02:25:53;;;;;;;4.00;1.20;;;;;;;16.46;60.04;98642.66;4499144;31;34854;-90
2023/10/30 02:28:20;;;;;;;5.37;1.08;;;;;;;16.32;60.28;98649.03;4498267;31;33899;-88
2023/10/30 02:30:48;;;;;;;5.72;1.30;;;;;;;16.34;60.55;98637.66;4493554;31;32897;-89
2023/10/30 02:33:15;;;;;;;4.87;1.12;;;;;;;16.40;60.60;98648.03;4499180;31;33946;-89
2023/10/30 02:35:43;;;;;;;5.65;1.50;;;;;;;16.40;60.81;98653.25;4499196;31;34080;-90
2023/10/30 02:38:11;;;;;;;5.90;1.30;;;;;;;16.45;60.38;98643.53;4498653;31;34053;-88
2023/10/30 02:40:38;;;;;;;7.55;1.37;;;;;;;16.33;61.12;98651.63;4498212;31;33320;-91
2023/10/30 02:43:06;;;;;;;7.85;1.45;;;;;;;16.26;61.47;98665.72;4498175;31;33668;-87
2023/10/30 02:45:34;;;;;;;9.63;1.80;;;;;;;16.24;62.12;98662.25;4483179;32;34809;-90
2023/10/30 02:48:01;;;;;;;4.65;1.45;;;;;;;16.14;62.45;98665.91;4493158;31;34321;-89
2023/10/30 02:50:30;;;;;;;6.18;1.30;;;;;;;16.24;61.68;98681.41;4497022;31;33795;-89
2023/10/30 02:52:59;;;;;;;7.97;1.55;;;;;;;16.36;61.08;98672.47;4498897;31;33338;-90
2023/10/30 02:55:27;;;;;;;5.78;1.60;;;;;;;16.38;61.66;98669.84;4498009;31;33720;-89
2023/10/30 02:57:55;;;;;;;4.78;1.37;;;;;;;16.35;61.07;98665.53;4498655;31;33865;-89
2023/10/30 03:00:22;;;;;;;8.82;2.03;;;;;;;16.38;61.08;98665.47;4495554;31;33146;-90
2023/10/30 03:02:50;;;;;;;9.75;2.10;;;;;;;16.30;61.74;98672.63;4497856;31;34493;-89
2023/10/30 03:05:18;;;;;;;8.65;1.67;;;;;;;16.20;62.16;98676.28;4498657;31;34814;-90
2023/10/30 03:07:45;;;;;;;6.00;1.50;;;;;;;16.40;60.94;98666.34;4482841;31;33695;-90
2023/10/30 03:10:13;;;;;;;7.62;1.58;;;;;;;16.27;61.55;98657.81;4492951;31;33400;-89
2023/10/30 03:12:40;;;;;;;4.57;1.52;;;;;;;16.35;61.69;98665.53;4498591;31;33632;-88
2023/10/30 03:15:09;;;;;;;6.12;1.48;;;;;;;16.21;61.91;98667.53;4496487;31;34621;-88
2023/10/30 03:17:36;;;;;;;8.40;1.85;;;;;;;16.19;62.00;98671.94;4485783;31;34056;-90
2023/10/30 03:20:07;;;;;;;10.40;1.90;;;;;;;16.25;61.83;98671.81;4497660;31;33743;-88
2023/10/30 03:22:35;;;;;;;6.50;1.52;;;;;;;16.27;63.37;98673.53;4497773;31;33527;-90
2023/10/30 03:25:03;;;;;;;8.43;1.77;;;;;;;16.21;62.94;98681.50;4499092;31;33896;-89
2023/10/30 03:27:32;;;;;;;3.28;1.30;;;;;;;16.30;61.76;98673.47;4497259;31;33626;-89
2023/10/30 03:29:59;;;;;;;6.25;1.87;;;;;;;16.46;61.54;98681.91;4496359;31;34167;-90
2023/10/30 03:32:27;;;;;;;3.47;1.55;;;;;;;16.29;63.40;98683.97;4498594;31;34192;-90
2023/10/30 03:34:58;;;;;;;7.32;1.73;;;;;;;16.16;64.03;98679.84;4496752;31;34785;-88
2023/10/30 03:37:26;;;;;;;7.60;1.62;;;;;;;16.17;63.60;98681.56;4484634;31;34860;-90
2023/10/30 03:39:54;;;;;;;5.68;1.33;;;;;;;16.09;63.82;98673.84;4497832;31;34108;-88
2023/10/30 03:42:22;;;;;;;7.40;1.52;;;;;;;16.03;64.26;98682.66;4496270;31;33935;-90
2023/10/30 03:44:49;;;;;;;5.72;1.37;;;;;;;15.97;64.52;98669.69;4498536;31;34593;-90
2023/10/30 03:47:16;;;;;;;7.60;1.23;;;;;;;16.19;63.43;98682.41;4498313;31;33608;-89
2023/10/30 03:49:45;;;;;;;8.43;1.45;;;;;;;16.04;64.51;98679.16;4491260;31;33117;-90
2023/10/30 03:52:12;;;;;;;3.37;1.20;;;;;;;15.92;65.16;98681.13;4488639;31;33953;-91
2023/10/30 03:54:40;;;;;;;11.32;1.35;;;;;;;15.96;64.86;98675.81;4498219;31;34137;-88
2023/10/30 03:57:10;;;;;;;6.22;1.62;;;;;;;15.93;64.82;98673.25;4496523;31;33934;-90
2023/10/30 03:59:38;;;;;;;8.60;1.30;;;;;;;15.90;64.45;98669.81;4484328;31;32319;-90
2023/10/30 04:02:05;;;;;;;11.15;1.70;;;;;;;15.83;64.58;98676.91;4498635;31;33999;-90
2023/10/30 04:04:35;;;;;;;4.53;1.33;;;;;;;15.89;64.95;98668.97;4497110;31;35064;-89
2023/10/30 04:07:03;;;;;;;5.25;1.17;;;;;;;16.20;63.89;98663.19;4491939;31;33745;-89
2023/10/30 04:09:32;;;;;;;6.47;1.55;;;;;;;15.88;64.09;98669.84;4482539;32;33507;-90
2023/10/30 04:12:02;;;;;;;5.25;1.40;;;;;;;15.79;63.66;98664.75;4491509;31;34200;-89
2023/10/30 04:14:33;;;;;;;4.30;1.45;;;;;;;15.69;63.16;98668.44;4494137;31;35036;-89
2023/10/30 04:17:02;;;;;;;5.10;1.30;;;;;;;15.75;63.29;98660.47;4496942;31;33210;-90
2023/10/30 04:19:30;;;;;;;8.10;1.60;;;;;;;15.83;63.00;98663.81;4499923;31;33107;-90
2023/10/30 04:21:57;;;;;;;7.87;1.42;;;;;;;16.10;61.38;98657.28;4498975;31;33588;-90
2023/10/30 04:24:25;;;;;;;6.70;1.40;;;;;;;15.90;61.68;98665.44;4498068;31;33940;-90
2023/10/30 04:26:53;;;;;;;3.72;1.40;;;;;;;15.93;61.38;98664.53;4499241;31;33498;-90
2023/10/30 04:29:20;;;;;;;4.78;1.50;;;;;;;15.86;62.36;98666.38;4499322;31;33384;-91
2023/10/30 04:31:48;;;;;;;8.52;1.75;;;;;;;16.02;61.67;98669.59;4497946;31;33794;-90
2023/10/30 04:34:16;;;;;;;7.43;1.23;;;;;;;16.06;61.42;98673.88;4499947;31;34403;-90
2023/10/30 04:36:43;;;;;;;5.47;1.17;;;;;;;15.99;62.80;98673.16;4499832;31;33812;-89
2023/10/30 04:39:13;;;;;;;3.00;1.15;;;;;;;15.99;62.35;98672.28;4499308;31;33423;-89
2023/10/30 04:41:40;;;;;;;4.68;1.15;;;;;;;16.03;62.21;98668.75;4499975;31;33284;-89
2023/10/30 04:44:08;;;;;;;8.13;1.87;;;;;;;15.98;61.51;98660.09;4498608;31;33384;-90
2023/10/30 04:46:35;;;;;;;8.63;1.45;;;;;;;15.98;62.52;98660.09;4498714;31;34449;-88
2023/10/30 04:49:03;;;;;;;7.12;1.60;;;;;;;15.92;61.74;98661.06;4498052;31;32676;-90
2023/10/30 04:51:30;;;;;;;4.40;1.30;;;;;;;15.77;62.77;98666.56;4498065;31;32630;-90
2023/10/30 04:53:58;;;;;;;5.60;1.42;;;;;;;15.80;62.56;98663.91;4499338;31;34862;-90
2023/10/30 04:56:25;;;;;;;4.43;1.65;;;;;;;15.98;60.93;98666.19;4498270;31;34105;-90
2023/10/30 04:58:53;;;;;;;5.45;0.80;;;;;;;15.87;61.47;98672.47;4497561;31;33540;-89
2023/10/30 05:01:21;;;;;;;5.80;1.40;;;;;;;15.93;60.84;98661.94;4491362;31;34323;-89
2023/10/30 05:03:48;;;;;;;4.22;1.42;;;;;;;15.89;60.13;98666.34;4498552;31;34065;-90
2023/10/30 05:06:16;;;;;;;5.03;0.98;;;;;;;15.86;61.21;98663.78;4496508;31;34400;-90
2023/10/30 05:08:44;;;;;;;5.97;1.55;;;;;;;15.87;61.21;98672.47;4499595;31;34150;-90
2023/10/30 05:11:11;;;;;;;3.75;1.48;;;;;;;15.99;60.65;98675.78;4495654;31;33872;-89
2023/10/30 05:13:39;;;;;;;4.15;1.37;;;;;;;15.82;60.83;98673.41;4498510;31;34561;-90
2023/10/30 05:16:07;;;;;;;7.57;1.67;;;;;;;15.87;61.18;98668.09;4480615;31;32794;-89
2023/10/30 05:18:34;;;;;;;5.93;1.30;;;;;;;15.99;59.90;98673.16;4499748;31;32771;-88
2023/10/30 05:21:02;;;;;;;5.25;1.60;;;;;;;16.17;59.70;98673.72;4499634;31;34792;-89
2023/10/30 05:23:29;;;;;;;5.50;1.70;;;;;;;15.97;62.05;98682.75;4499241;31;34089;-90
2023/10/30 05:25:57;;;;;;;4.35;1.37;;;;;;;15.92;62.22;98681.13;4497496;31;33734;-89
2023/10/30 05:28:24;;;;;;;6.85;1.52;;;;;;;15.78;61.16;98678.72;4497039;31;33369;-89
2023/10/30 05:30:54;;;;;;;6.60;1.50;;;;;;;16.21;60.16;98675.37;4496634;31;34584;-90
2023/10/30 05:33:22;;;;;;;6.32;1.20;;;;;;;15.88;61.87;98685.53;4499533;31;34809;-88
2023/10/30 05:35:52;;;;;;;5.65;1.23;;;;;;;15.86;62.30;98691.66;4497516;31;34579;-90
2023/10/30 05:38:22;;;;;;;3.72;1.23;;;;;;;15.90;61.42;98698.56;4498127;31;33354;-90
2023/10/30 05:40:49;;;;;;;7.22;1.85;;;;;;;15.82;60.47;98701.31;4497576;31;35096;-91
2023/10/30 05:43:17;;;;;;;6.22;1.98;;;;;;;15.92;60.60;98694.19;4499590;31;33592;-90
2023/10/30 05:45:47;;;;;;;5.05;1.73;;;;;;;15.68;61.08;98703.28;4495925;31;33681;-88
2023/10/30 05:48:15;;;;;;;3.72;1.23;;;;;;;16.05;60.27;98696.56;4488221;31;32801;-90
2023/10/30 05:50:42;;;;;;;4.95;1.75;;;;;;;15.82;61.46;98707.41;4497239;31;34633;-90
2023/10/30 05:53:10;;;;;;;4.82;1.77;;;;;;;15.77;61.83;98705.75;4498422;31;34724;-89
2023/10/30 05:55:38;;;;;;;5.75;1.70;;;;;;;15.76;62.39;98711.88;4494813;31;33384;-89
2023/10/30 05:58:06;;;;;;;6.35;1.90;;;;;;;15.68;63.06;98717.22;4499197;31;32975;-87
2023/10/30 06:00:34;;;;;;;5.62;2.00;;;;;;;15.44;63.15;98714.91;4497977;31;31894;-89
2023/10/30 06:03:02;;;;;;;5.80;1.83;;;;;;;15.61;62.48;98717.28;4499444;31;33288;-89
2023/10/30 06:05:30;;;;;;;9.82;2.45;;;;;;;15.74;62.25;98718.88;4497085;31;34365;-90
2023/10/30 06:07:57;;;;;;;5.45;2.12;;;;;;;15.74;62.81;98722.34;4499375;31;32978;-90
2023/10/30 06:10:25;;;;;;;6.55;1.62;;;;;;;15.59;63.33;98722.53;4498038;31;33773;-89
2023/10/30 06:12:53;;;;;;;8.93;2.00;;;;;;;15.63;62.52;98723.34;4499093;31;33786;-90
2023/10/30 06:15:20;;;;;;;4.80;1.60;;;;;;;15.65;63.93;98729.44;4497878;31;33772;-90
2023/10/30 06:17:48;;;;;;;5.45;1.90;;;;;;;15.76;61.68;98727.56;4498954;31;32923;-89
2023/10/30 06:20:15;;;;;;;5.25;1.70;;;;;;;15.72;63.79;98731.09;4497894;31;33947;-91
2023/10/30 06:22:43;;;;;;;7.65;1.65;;;;;;;15.72;64.00;98726.75;4499157;31;34888;-90
2023/10/30 06:25:10;;;;;;;6.97;2.08;;;;;;;15.88;62.88;98736.97;4497793;31;33935;-90
2023/10/30 06:27:40;;;;;;;6.85;2.10;;;;;;;15.78;64.32;98739.69;4498804;31;33004;-88
2023/10/30 06:30:09;;;;;;;5.30;1.90;;;;;;;15.95;63.78;98734.22;4497134;31;33962;-90
2023/10/30 06:32:37;;;;;;;4.50;1.55;;;;;;;16.01;63.06;98735.87;4495431;31;33350;-91
2023/10/30 06:35:07;;;;;;;7.53;1.87;;;;;;;16.18;62.06;98746.06;4489415;31;34951;-91
2023/10/30 06:37:34;;;;;;;5.80;1.80;;;;;;;15.97;61.96;98740.28;4485370;31;34205;-89
2023/10/30 06:40:03;;;;;;;4.45;2.15;;;;;;;15.95;61.77;98736.84;4497886;31;34826;-88
2023/10/30 06:42:30;;;;;;;3.75;1.20;;;;;;;16.28;60.15;98738.00;4496481;31;33970;-90
2023/10/30 06:44:58;;;;;;;4.87;1.50;;;;;;;16.28;59.48;98739.78;4498493;31;33959;-90
2023/10/30 06:47:27;;;;;;;7.35;1.60;;;;;;;16.25;59.63;98752.91;4498672;31;33224;-89
2023/10/30 06:49:54;;;;;;;6.97;1.73;;;;;;;16.56;58.73;98748.03;4494259;31;33510;-90
2023/10/30 06:52:22;;;;;;;11.15;1.87;;;;;;;16.24;59.82;98748.56;4490901;31;33684;-90
2023/10/30 06:54:49;;;;;;;5.53;1.83;;;;;;;16.75;57.84;98743.34;4492058;31;34587;-89
2023/10/30 06:57:17;;;;;;;6.10;1.85;;;;;;;16.40;61.43;98749.16;4498734;31;34113;-90
2023/10/30 06:59:45;;;;;;;6.30;1.55;;;;;;;16.55;59.19;98756.75;4498932;31;34462;-91
2023/10/30 07:02:13;;;;;;;4.47;1.35;;;;;;;16.55;58.89;98754.12;4485217;31;33641;-91
2023/10/30 07:04:41;;;;;;;7.55;1.60;;;;;;;16.47;59.18;98751.66;4485164;31;33563;-90
2023/10/30 07:07:10;;;;;;;8.68;1.92;;;;;;;16.62;58.75;98752.25;4499077;31;33285;-92
2023/10/30 07:09:38;;;;;;;3.95;1.12;;;;;;;16.77;58.09;98758.09;4499014;31;33513;-93
2023/10/30 07:12:06;;;;;;;5.62;1.52;;;;;;;16.59;60.32;98752.31;4489388;31;34046;-88
2023/10/30 07:14:34;;;;;;;7.40;1.87;;;;;;;16.46;60.30;98747.31;4498735;31;34058;-91
2023/10/30 07:17:01;;;;;;;4.30;1.52;;;;;;;16.67;59.57;98755.69;4495855;31;33053;-92
2023/10/30 07:19:31;;;;;;;7.93;1.40;;;;;;;16.63;58.71;98756.59;4491870;31;33474;-88
2023/10/30 07:22:00;;;;;;;6.72;1.52;;;;;;;16.69;59.42;98762.59;4493503;31;34134;-91
2023/10/30 07:24:28;;;;;;;7.03;1.58;;;;;;;16.79;60.04;98763.34;4497140;31;34048;-88
2023/10/30 07:26:57;;;;;;;6.20;1.50;;;;;;;17.03;57.88;98760.22;4493900;31;32437;-91
2023/10/30 07:29:25;;;;;;;6.07;1.60;;;;;;;16.90;59.41;98769.22;4497174;31;33493;-90
2023/10/30 07:31:55;;;;;;;6.43;1.58;;;;;;;16.96;58.63;98769.09;4493153;31;33779;-89
2023/10/30 07:34:22;;;;;;;5.40;1.95;;;;;;;17.02;57.87;98771.59;4498429;31;34359;-91
2023/10/30 07:36:50;;;;;;;7.53;1.95;;;;;;;17.16;58.13;98773.06;4496789;31;33502;-88
2023/10/30 07:39:18;;;;;;;3.35;1.52;;;;;;;17.29;56.67;98766.69;4497844;31;34003;-91
2023/10/30 07:41:46;;;;;;;6.75;1.50;;;;;;;17.35;56.77;98770.94;4479919;31;31861;-90
2023/10/30 07:44:14;;;;;;;6.40;1.58;;;;;;;17.43;58.19;98767.28;4495481;31;33944;-91
2023/10/30 07:46:42;;;;;;;6.60;1.58;;;;;;;17.35;58.70;98770.94;4484089;31;32615;-89
2023/10/30 07:49:12;;;;;;;6.15;1.70;;;;;;;17.36;57.09;98764.81;4497884;31;33784;-89
2023/10/30 07:51:39;;;;;;;3.53;1.40;;;;;;;17.49;56.41;98769.75;4482611;32;34936;-91
2023/10/30 07:54:07;;;;;;;5.93;1.30;;;;;;;17.38;55.79;98761.25;4496132;31;33456;-89
2023/10/30 07:56:35;;;;;;;3.80;1.33;;;;;;;17.63;55.75;98761.59;4498635;31;33137;-89
2023/10/30 07:59:06;;;;;;;7.18;1.27;;;;;;;17.63;56.82;98776.47;4498035;31;34348;-91
2023/10/30 08:01:34;;;;;;;5.43;1.30;;;;;;;17.90;55.47;98775.88;4497616;31;32915;-90
2023/10/30 08:04:03;;;;;;;5.22;1.48;;;;;;;17.77;55.54;98768.31;4496980;31;33911;-91
2023/10/30 08:06:30;;;;;;;5.05;1.58;;;;;;;17.90;54.68;98770.62;4490486;31;33422;-88
2023/10/30 08:08:58;;;;;;;3.62;1.27;;;;;;;18.01;54.94;98766.91;4496618;31;33703;-88
2023/10/30 08:11:27;;;;;;;4.25;1.25;;;;;;;17.93;54.40;98773.19;4497713;31;33543;-91
2023/10/30 08:13:57;;;;;;;4.37;1.52;;;;;;;18.08;54.64;98768.47;4493903;31;33424;-92
2023/10/30 08:16:29;;;;;;;5.37;1.30;;;;;;;18.11;54.55;98757.91;4487432;31;33035;-89
2023/10/30 08:18:57;;;;;;;9.07;1.48;;;;;;;18.05;55.64;98772.03;4498331;31;33517;-89
2023/10/30 08:21:25;;;;;;;6.37;1.15;;;;;;;18.42;54.09;98765.87;4494212;31;33445;-89
2023/10/30 08:23:52;;;;;;;6.85;1.58;;;;;;;18.51;53.25;98762.16;4494823;31;33832;-89
2023/10/30 08:26:20;;;;;;;4.10;1.17;;;;;;;18.53;54.00;98755.97;4488490;31;33557;-90
2023/10/30 08:28:48;;;;;;;4.28;1.20;;;;;;;18.45;53.85;98739.56;4489142;31;34606;-89
2023/10/30 08:31:16;;;;;;;6.78;1.52;;;;;;;18.74;53.26;98749.31;4494712;31;33827;-88
2023/10/30 08:33:43;;;;;;;6.80;1.37;;;;;;;18.42;53.84;98756.25;4487952;31;33537;-89
2023/10/30 08:36:22;;;;;;;4.43;1.20;;;;;;;18.64;53.78;98747.81;4496051;31;32924;-90
2023/10/30 08:38:50;;;;;;;3.17;1.25;;;;;;;18.76;53.41;98750.16;4496602;31;34615;-91
2023/10/30 08:41:22;;;;;;;4.62;1.30;;;;;;;19.14;52.61;98753.47;4494142;31;34072;-90
2023/10/30 08:43:49;;;;;;;7.00;1.35;;;;;;;19.00;52.60;98753.00;4484307;31;36112;-88
2023/10/30 08:46:20;;;;;;;5.45;1.50;;;;;;;19.03;52.37;98750.28;4484325;31;35804;-89
2023/10/30 08:48:47;;;;;;;7.72;1.50;;;;;;;19.08;52.46;98745.75;4488672;31;34399;-90
2023/10/30 08:51:15;;;;;;;8.35;1.50;;;;;;;19.10;52.01;98750.06;4493428;31;35122;-88
2023/10/30 08:53:43;;;;;;;4.60;1.30;;;;;;;19.29;52.50;98752.19;4469248;31;33568;-91
2023/10/30 08:56:10;;;;;;;4.90;1.48;;;;;;;19.51;51.75;98741.84;4495268;31;33853;-89
2023/10/30 08:58:38;;;;;;;5.10;1.62;;;;;;;19.52;52.51;98748.84;4496790;31;33517;-89
2023/10/30 09:01:06;;;;;;;9.13;1.58;;;;;;;19.74;52.24;98739.44;4497724;31;33408;-89
2023/10/30 09:03:33;;;;;;;5.53;1.55;;;;;;;19.77;51.99;98744.56;4494808;31;34354;-87
2023/10/30 09:06:01;;;;;;;6.97;1.65;;;;;;;20.09;50.84;98748.84;4482564;31;31696;-88
2023/10/30 09:08:29;;;;;;;3.50;1.08;;;;;;;20.23;50.44;98745.75;4483913;32;33911;-88
2023/10/30 09:10:56;;;;;;;3.70;1.08;;;;;;;20.36;50.53;98754.09;4483844;32;35385;-88
2023/10/30 09:13:24;;;;;;;3.25;1.00;;;;;;;20.29;50.20;98750.81;4494433;31;33940;-86
2023/10/30 09:15:51;;;;;;;7.00;1.10;;;;;;;20.36;50.17;98754.94;4483554;31;34130;-86
2023/10/30 09:18:19;;;;;;;4.45;1.20;;;;;;;20.40;50.64;98748.66;4495855;31;34632;-86
2023/10/30 09:20:48;;;;;;;5.47;1.40;;;;;;;20.59;50.46;98750.72;4488310;31;34223;-88
2023/10/30 09:23:15;;;;;;;5.60;1.58;;;;;;;20.53;50.11;98748.28;4495205;31;33921;-89
2023/10/30 09:25:43;;;;;;;6.00;1.25;;;;;;;20.65;50.01;98751.37;4499435;31;34080;-88
2023/10/30 09:28:11;;;;;;;5.37;1.02;;;;;;;20.71;50.49;98776.63;4499139;31;33854;-88
2023/10/30 09:30:39;;;;;;;3.83;0.93;;;;;;;20.88;50.19;98773.41;4496632;31;33840;-87
2023/10/30 09:33:07;;;;;;;6.35;1.73;;;;;;;20.85;50.05;98771.75;4498895;31;33382;-87
2023/10/30 09:35:37;;;;;;;4.93;0.90;;;;;;;20.90;49.47;98766.28;4493139;31;32780;-88
2023/10/30 09:38:05;;;;;;;6.65;0.90;;;;;;;20.96;48.16;98770.50;4496757;31;33328;-88
2023/10/30 09:40:32;;;;;;;6.32;1.35;;;;;;;21.12;48.06;98766.41;4491989;31;33615;-89
2023/10/30 09:43:01;;;;;;;5.32;1.12;;;;;;;21.03;48.55;98751.78;4482974;31;33824;-89
2023/10/30 09:45:30;;;;;;;6.70;2.08;;;;;;;21.22;48.71;98754.59;4497397;31;32838;-88
2023/10/30 09:47:57;;;;;;;5.75;1.20;;;;;;;21.19;48.17;98751.22;4497708;31;33915;-90
2023/10/30 09:50:26;;;;;;;5.22;1.25;;;;;;;21.03;48.24;98745.66;4494328;31;35015;-87
2023/10/30 09:52:54;;;;;;;6.05;1.15;;;;;;;21.00;48.11;98748.41;4497924;31;34517;-89
2023/10/30 09:55:23;;;;;;;6.03;1.10;;;;;;;20.91;48.76;98744.31;4489711;31;33990;-88
2023/10/30 09:57:52;;;;;;;8.10;1.50;;;;;;;20.92;48.87;98732.88;4490957;31;34770;-87
2023/10/30 10:00:20;;;;;;;5.60;1.40;;;;;;;21.05;48.90;98743.81;4498097;31;35059;-88
2023/10/30 10:02:49;;;;;;;5.85;1.12;;;;;;;21.21;48.79;98739.69;4485941;31;33924;-90
2023/10/30 10:05:18;;;;;;;4.97;1.10;;;;;;;21.14;48.18;98740.84;4493740;31;33823;-92
2023/10/30 10:07:46;;;;;;;4.62;1.33;;;;;;;20.90;48.71;98742.59;4497957;31;33878;-88
2023/10/30 10:10:18;;;;;;;6.20;1.62;;;;;;;21.12;48.65;98740.03;4497903;31;34957;-90
2023/10/30 10:12:48;;;;;;;5.95;1.27;;;;;;;21.04;49.00;98732.41;4473643;31;33724;-86
2023/10/30 10:15:17;;;;;;;8.20;1.48;;;;;;;21.12;48.34;98726.84;4491825;31;33446;-84
2023/10/30 10:17:45;;;;;;;8.68;1.33;;;;;;;21.19;48.52;98735.41;4493700;31;33537;-96
2023/10/30 10:20:12;;;;;;;4.57;1.33;;;;;;;21.21;48.65;98737.03;4499617;31;33981;-94
2023/10/30 10:22:44;;;;;;;3.50;0.90;;;;;;;20.93;49.22;98739.84;4499248;31;33148;-90
2023/10/30 10:25:11;;;;;;;4.05;1.20;;;;;;;21.06;49.42;98727.06;4499146;31;33512;-96
2023/10/30 10:27:40;;;;;;;7.87;1.70;;;;;;;21.04;49.60;98732.41;4498316;31;33472;-86
2023/10/30 10:30:09;;;;;;;7.47;1.50;;;;;;;21.14;48.30;98717.97;4483319;31;34805;-90
2023/10/30 10:32:37;;;;;;;5.18;1.60;;;;;;;21.07;48.27;98732.31;4483244;32;33939;-84
2023/10/30 10:35:06;;;;;;;4.95;1.02;;;;;;;20.89;48.57;98747.00;4492349;31;32444;-85
2023/10/30 10:37:34;;;;;;;6.53;1.05;;;;;;;20.98;48.63;98747.56;4487178;31;33834;-84
2023/10/30 10:40:05;;;;;;;6.65;1.30;;;;;;;20.95;48.08;98751.22;4498795;31;34191;-87
2023/10/30 10:42:34;;;;;;;4.87;1.25;;;;;;;21.07;48.07;98744.63;4489735;31;34754;-88
2023/10/30 10:45:02;;;;;;;5.25;1.12;;;;;;;20.97;48.41;98761.69;4469147;32;33270;-91
2023/10/30 10:47:33;;;;;;;5.00;1.25;;;;;;;20.83;49.19;98755.09;4488058;31;33812;-87
2023/10/30 10:50:03;;;;;;;5.15;1.20;;;;;;;20.93;48.65;98737.22;4496246;31;33518;-87
2023/10/30 10:52:36;;;;;;;6.55;1.15;;;;;;;21.19;48.47;98738.91;4490612;31;33574;-84
2023/10/30 10:55:05;;;;;;;7.82;1.42;;;;;;;21.13;48.94;98732.06;4492550;31;34056;-86
2023/10/30 10:57:51;;;;;;;4.78;1.27;;;;;;;21.06;48.81;98724.44;4483785;31;33806;-89
2023/10/30 11:00:20;;;;;;;5.05;1.42;;;;;;;21.08;49.47;98723.47;4487968;31;33950;-84
2023/10/30 11:02:49;;;;;;;6.62;1.40;;;;;;;21.20;48.70;98724.78;4495294;31;33903;-87
2023/10/30 11:05:17;;;;;;;4.78;1.25;;;;;;;21.24;48.67;98721.13;4490222;31;33212;-91
2023/10/30 11:08:12;;;;;;;8.50;1.40;;;;;;;21.38;48.47;98728.56;4494768;31;33664;-88
2023/10/30 11:10:46;;;;;;;9.55;1.30;;;;;;;21.49;48.18;98731.62;4496611;31;33936;-90
2023/10/30 11:13:31;;;;;;;3.55;1.10;;;;;;;21.36;48.76;98725.94;4483228;31;33421;-90
2023/10/30 11:16:18;;;;;;;5.75;1.20;;;;;;;21.38;47.94;98724.12;4494841;31;33099;-87
2023/10/30 11:18:50;;;;;;;5.03;1.40;;;;;;;21.33;48.36;98715.53;4492734;31;34068;-89
2023/10/30 11:21:17;;;;;;;6.62;1.92;;;;;;;21.36;48.44;98720.69;4493976;31;34169;-86
2023/10/30 11:23:52;;;;;;;5.03;1.40;;;;;;;21.46;48.60;98718.56;4489464;31;34421;-89
2023/10/30 11:26:41;;;;;;;11.27;1.40;;;;;;;21.58;47.45;98711.94;4487344;31;34821;-88
2023/10/30 11:29:10;;;;;;;3.45;1.27;;;;;;;21.49;48.59;98710.53;4491306;31;33908;-87
2023/10/30 11:31:54;;;;;;;5.43;1.50;;;;;;;21.42;48.20;98706.41;4499978;31;33894;-90
2023/10/30 11:34:25;;;;;;;5.35;1.40;;;;;;;21.44;48.44;98704.59;4492845;31;34019;-88
2023/10/30 11:36:52;;;;;;;5.87;1.70;;;;;;;21.49;47.87;98702.63;4491464;31;34993;-84
2023/10/30 11:39:21;;;;;;;6.87;1.48;;;;;;;21.44;47.59;98699.31;4491219;31;34445;-89